Time;durP1;ratioP1;P1;durP2;ratioP2;P2;SDS_P1;SDS_P2;PMS_P1;PMS_P2;Temp;Humidity;BMP_temperature;BMP_pressure;BME280_temperature;BME280_humidity;BME280_pressure;Samples;Min_cycle;Max_cycle;Signal;HPM_P1;HPM_P2
2022/03/30 00:00:23;;;;;;;3.78;1.77;;;12.00;99.90;;;;;;4977435;28;20509;-76
2022/03/30 00:02:49;;;;;;;1.85;1.70;;;11.90;99.90;;;;;;4977026;28;20027;-76
2022/03/30 00:05:15;;;;;;;1.33;1.13;;;11.90;99.90;;;;;;4976451;28;20026;-76
2022/03/30 00:07:41;;;;;;;0.40;0.40;;;11.80;99.90;;;;;;4977031;28;20482;-76
2022/03/30 00:10:07;;;;;;;12.80;1.40;;;11.80;99.90;;;;;;4976603;28;20030;-76
2022/03/30 00:12:34;;;;;;;0.30;0.25;;;11.80;99.90;;;;;;4977222;28;20059;-76
2022/03/30 00:15:00;;;;;;;0.57;0.57;;;11.80;99.90;;;;;;4977125;28;20058;-76
2022/03/30 00:17:26;;;;;;;0.43;0.43;;;11.80;99.90;;;;;;4977021;28;20019;-75
2022/03/30 00:19:52;;;;;;;0.52;0.52;;;11.70;99.90;;;;;;4976677;28;20035;-75
2022/03/30 00:22:17;;;;;;;6.75;2.10;;;11.70;99.90;;;;;;4976466;28;20027;-76
2022/03/30 00:24:44;;;;;;;47.22;4.65;;;11.70;99.90;;;;;;4976968;28;20031;-76
2022/03/30 00:27:11;;;;;;;1.38;1.27;;;11.70;99.90;;;;;;4977076;28;20103;-76
2022/03/30 00:29:36;;;;;;;13.10;1.75;;;11.80;99.90;;;;;;4976673;28;20077;-76
2022/03/30 00:32:03;;;;;;;0.00;0.00;;;11.70;99.90;;;;;;4977093;28;20122;-76
2022/03/30 00:34:29;;;;;;;4.90;1.60;;;11.70;99.90;;;;;;4975197;28;20573;-76
2022/03/30 00:36:54;;;;;;;0.85;0.75;;;11.70;99.90;;;;;;4977088;28;20047;-76
2022/03/30 00:39:20;;;;;;;0.73;0.73;;;11.70;99.90;;;;;;4970917;28;20110;-76
2022/03/30 00:41:46;;;;;;;0.95;0.65;;;11.70;99.90;;;;;;4957545;28;20019;-76
2022/03/30 00:44:13;;;;;;;2.15;1.23;;;11.70;99.90;;;;;;4957761;28;20046;-76
2022/03/30 00:46:42;;;;;;;0.52;0.28;;;11.70;99.90;;;;;;4957582;28;20023;-76
2022/03/30 00:49:09;;;;;;;0.95;0.95;;;11.70;99.90;;;;;;4957014;28;20026;-76
2022/03/30 00:51:35;;;;;;;9.07;1.33;;;11.70;99.90;;;;;;4962026;28;20019;-76
2022/03/30 00:54:01;;;;;;;3.35;1.92;;;11.70;99.90;;;;;;4975980;28;20118;-76
2022/03/30 00:56:29;;;;;;;3.70;1.63;;;11.70;99.90;;;;;;4976324;28;20046;-75
2022/03/30 00:58:55;;;;;;;1.00;0.70;;;11.70;99.90;;;;;;4976109;28;20081;-76
2022/03/30 01:01:22;;;;;;;0.50;0.40;;;11.70;99.90;;;;;;4975281;28;20459;-76
2022/03/30 01:03:48;;;;;;;2.15;0.35;;;11.70;99.90;;;;;;4975999;28;20027;-76
2022/03/30 01:06:14;;;;;;;0.73;0.63;;;11.70;99.90;;;;;;4975167;28;20379;-76
2022/03/30 01:08:39;;;;;;;2.72;1.85;;;11.70;99.90;;;;;;4975862;28;20035;-76
2022/03/30 01:11:06;;;;;;;1.65;0.93;;;11.70;99.90;;;;;;4975987;28;20380;-76
2022/03/30 01:13:33;;;;;;;6.60;1.73;;;11.70;99.90;;;;;;4975150;28;20026;-76
2022/03/30 01:15:59;;;;;;;2.08;0.95;;;11.70;99.90;;;;;;4976115;28;20114;-76
2022/03/30 01:18:38;;;;;;;0.60;0.52;;;11.70;99.90;;;;;;4975639;28;20031;-76
2022/03/30 01:21:04;;;;;;;1.65;0.63;;;11.70;99.90;;;;;;4975946;28;20437;-76
2022/03/30 01:23:30;;;;;;;0.45;0.22;;;11.60;99.90;;;;;;4975825;28;20026;-76
2022/03/30 01:25:56;;;;;;;0.75;0.70;;;11.70;99.90;;;;;;4975756;28;20023;-75
2022/03/30 01:28:27;;;;;;;3.38;1.58;;;11.70;99.90;;;;;;4975628;28;20492;-76
2022/03/30 01:33:42;;;;;;;0.32;0.32;;;11.70;99.90;;;;;;4974199;28;20030;-76
2022/03/30 01:36:08;;;;;;;1.60;0.63;;;11.70;99.90;;;;;;4974570;28;20122;-75
2022/03/30 01:38:34;;;;;;;1.65;1.20;;;11.70;99.90;;;;;;4973945;28;20158;-75
2022/03/30 01:40:59;;;;;;;1.20;0.85;;;11.70;99.90;;;;;;4957106;28;20083;-75
2022/03/30 01:43:28;;;;;;;2.42;0.65;;;11.70;99.90;;;;;;4956602;28;20048;-76
2022/03/30 01:45:55;;;;;;;0.55;0.55;;;11.70;99.90;;;;;;4955999;28;20063;-76
2022/03/30 01:48:20;;;;;;;0.35;0.35;;;11.70;99.90;;;;;;4956032;28;20102;-76
2022/03/30 01:50:46;;;;;;;1.40;1.30;;;11.70;99.90;;;;;;4954721;28;20063;-76
2022/03/30 01:53:12;;;;;;;1.45;1.27;;;11.70;99.90;;;;;;4973857;28;20030;-76
2022/03/30 01:55:37;;;;;;;0.45;0.45;;;11.80;99.90;;;;;;4975251;28;20481;-76
2022/03/30 01:58:04;;;;;;;7.28;2.78;;;11.70;99.90;;;;;;4975609;28;20027;-76
2022/03/30 02:00:29;;;;;;;4.28;2.58;;;11.70;99.90;;;;;;4975509;28;20097;-76
2022/03/30 02:02:55;;;;;;;0.63;0.63;;;11.80;99.90;;;;;;4974907;28;20479;-76
2022/03/30 02:05:21;;;;;;;0.60;0.60;;;11.80;99.90;;;;;;4975146;28;20054;-76
2022/03/30 02:07:47;;;;;;;0.95;0.88;;;11.70;99.90;;;;;;4974302;28;20026;-76
2022/03/30 02:10:13;;;;;;;1.17;0.73;;;11.70;99.90;;;;;;4974653;28;20454;-76
2022/03/30 02:12:38;;;;;;;0.88;0.63;;;11.70;99.90;;;;;;4975241;28;20054;-76
2022/03/30 02:15:05;;;;;;;2.08;1.48;;;11.70;99.90;;;;;;4975056;28;20453;-76
2022/03/30 02:17:32;;;;;;;5.88;1.60;;;11.70;99.90;;;;;;4973498;28;20431;-75
2022/03/30 02:19:58;;;;;;;2.58;1.63;;;11.70;99.90;;;;;;4974441;28;20041;-75
2022/03/30 02:22:24;;;;;;;0.63;0.63;;;11.70;99.90;;;;;;4974831;28;20022;-76
2022/03/30 02:24:51;;;;;;;0.95;0.90;;;11.80;99.90;;;;;;4974951;28;20045;-76
2022/03/30 02:27:19;;;;;;;0.32;0.30;;;11.80;99.90;;;;;;4974862;28;20035;-75
2022/03/30 02:29:49;;;;;;;2.30;1.35;;;11.80;99.90;;;;;;4974677;28;20509;-76
2022/03/30 02:32:15;;;;;;;5.82;3.60;;;11.80;99.90;;;;;;4974500;28;20501;-75
2022/03/30 02:34:42;;;;;;;3.10;1.50;;;11.80;99.90;;;;;;4974430;28;20027;-75
2022/03/30 02:37:08;;;;;;;1.08;0.98;;;11.80;99.90;;;;;;4974908;28;20042;-76
2022/03/30 02:39:34;;;;;;;0.10;0.10;;;11.80;99.90;;;;;;4969228;28;20487;-75
2022/03/30 02:42:01;;;;;;;0.20;0.20;;;11.80;99.90;;;;;;4954594;29;20110;-76
2022/03/30 02:44:27;;;;;;;0.47;0.47;;;11.80;99.90;;;;;;4955533;29;20398;-75
2022/03/30 02:46:53;;;;;;;8.02;1.90;;;11.80;99.90;;;;;;4955220;28;20031;-76
2022/03/30 02:49:18;;;;;;;0.63;0.63;;;11.90;99.90;;;;;;4969537;28;20023;-76
2022/03/30 02:51:44;;;;;;;0.45;0.40;;;11.90;99.90;;;;;;4961133;28;20541;-76
2022/03/30 02:54:10;;;;;;;0.40;0.28;;;11.80;99.90;;;;;;4972689;28;20057;-75
2022/03/30 02:56:35;;;;;;;1.00;0.73;;;11.80;99.90;;;;;;4973840;28;20490;-76
2022/03/30 02:59:01;;;;;;;5.10;1.58;;;11.90;99.90;;;;;;4973533;28;20110;-76
2022/03/30 03:01:27;;;;;;;0.15;0.15;;;11.80;99.90;;;;;;4974128;28;20038;-76
2022/03/30 03:03:52;;;;;;;3.33;1.15;;;11.90;99.90;;;;;;4973848;28;20038;-75
2022/03/30 03:06:18;;;;;;;0.88;0.50;;;11.90;99.90;;;;;;4974302;28;20027;-76
2022/03/30 03:08:43;;;;;;;0.55;0.50;;;11.80;99.90;;;;;;4974256;28;20034;-75
2022/03/30 03:11:10;;;;;;;0.68;0.68;;;11.80;99.90;;;;;;4973857;28;20070;-76
2022/03/30 03:13:36;;;;;;;4.32;1.85;;;11.80;99.90;;;;;;4972630;28;20169;-75
2022/03/30 03:16:02;;;;;;;0.20;0.20;;;11.90;99.90;;;;;;4972808;28;20030;-76
2022/03/30 03:18:28;;;;;;;0.95;0.95;;;11.90;99.90;;;;;;4983073;28;20110;-75
2022/03/30 03:20:54;;;;;;;0.45;0.45;;;11.80;99.90;;;;;;4974194;28;20107;-75
2022/03/30 03:23:19;;;;;;;3.78;1.58;;;11.80;99.90;;;;;;4974090;28;20027;-76
2022/03/30 03:25:46;;;;;;;1.42;1.10;;;11.80;99.90;;;;;;4972683;28;20023;-76
2022/03/30 03:28:13;;;;;;;1.27;0.95;;;11.80;99.90;;;;;;4974335;28;20022;-76
2022/03/30 03:30:39;;;;;;;2.00;1.35;;;11.80;99.90;;;;;;4974119;28;20090;-76
2022/03/30 03:33:06;;;;;;;11.30;1.75;;;11.80;99.90;;;;;;4973360;28;20023;-76
2022/03/30 03:35:31;;;;;;;3.63;1.38;;;11.80;99.90;;;;;;4973767;28;20106;-76
2022/03/30 03:37:58;;;;;;;34.70;5.85;;;11.80;99.90;;;;;;4972442;28;20095;-76
2022/03/30 03:40:24;;;;;;;1.90;1.17;;;11.80;99.90;;;;;;4973156;28;20039;-76
2022/03/30 03:42:49;;;;;;;1.38;1.10;;;11.80;99.90;;;;;;4974150;28;20045;-76
2022/03/30 03:45:16;;;;;;;1.70;1.60;;;11.70;99.90;;;;;;4973897;28;20031;-76
2022/03/30 03:47:42;;;;;;;0.63;0.63;;;11.70;99.90;;;;;;4972096;28;20078;-76
2022/03/30 03:50:10;;;;;;;2.78;1.90;;;11.70;99.90;;;;;;4973950;28;20035;-76
2022/03/30 03:52:36;;;;;;;3.28;1.45;;;11.70;99.90;;;;;;4973313;28;20102;-76
2022/03/30 03:55:03;;;;;;;0.63;0.60;;;11.70;99.90;;;;;;4971820;28;20069;-76
2022/03/30 03:57:32;;;;;;;0.55;0.50;;;11.70;99.90;;;;;;4973691;28;20243;-76
2022/03/30 03:59:58;;;;;;;0.65;0.43;;;11.70;99.90;;;;;;4973771;28;20031;-76
2022/03/30 04:02:23;;;;;;;5.45;1.88;;;11.70;99.90;;;;;;4973312;28;20019;-76
2022/03/30 04:04:49;;;;;;;0.77;0.77;;;11.70;99.90;;;;;;4973693;28;20027;-76
2022/03/30 04:07:15;;;;;;;3.40;1.63;;;11.60;99.90;;;;;;4973763;28;20026;-77
2022/03/30 04:09:40;;;;;;;7.15;2.65;;;11.60;99.90;;;;;;4974714;28;20057;-76
2022/03/30 04:12:07;;;;;;;3.17;1.33;;;11.60;99.90;;;;;;4976542;28;20035;-76
2022/03/30 04:14:33;;;;;;;1.85;1.75;;;11.60;99.90;;;;;;4977293;28;20027;-76
2022/03/30 04:16:59;;;;;;;0.68;0.68;;;11.60;99.90;;;;;;4977029;28;20023;-76
2022/03/30 04:19:25;;;;;;;4.03;0.95;;;11.60;99.90;;;;;;4976670;28;20030;-76
2022/03/30 04:21:51;;;;;;;0.90;0.90;;;11.60;99.90;;;;;;4975725;28;20426;-76
2022/03/30 04:24:17;;;;;;;2.33;1.80;;;11.60;99.90;;;;;;4975762;28;20031;-76
2022/03/30 04:26:42;;;;;;;5.68;0.55;;;11.60;99.90;;;;;;4976827;28;20023;-76
2022/03/30 04:29:08;;;;;;;2.40;1.50;;;11.60;99.90;;;;;;4976381;28;20027;-76
2022/03/30 04:31:34;;;;;;;0.93;0.90;;;11.60;99.90;;;;;;4976801;28;20101;-76
2022/03/30 04:34:00;;;;;;;5.15;1.40;;;11.60;99.90;;;;;;4975275;28;20039;-76
2022/03/30 04:36:29;;;;;;;1.55;1.45;;;11.60;99.90;;;;;;4977050;28;20035;-76
2022/03/30 04:38:54;;;;;;;7.10;3.25;;;11.60;99.90;;;;;;4976214;28;20045;-76
2022/03/30 04:41:20;;;;;;;2.05;1.77;;;11.50;99.90;;;;;;4956844;28;20031;-76
2022/03/30 04:43:46;;;;;;;22.77;3.97;;;11.50;99.90;;;;;;4957319;28;20102;-76
2022/03/30 04:46:13;;;;;;;2.17;1.27;;;11.50;99.90;;;;;;4957324;28;20035;-76
2022/03/30 04:48:39;;;;;;;1.50;1.40;;;11.50;99.90;;;;;;4957376;28;20026;-76
2022/03/30 04:51:05;;;;;;;1.20;1.10;;;11.50;99.90;;;;;;4972781;28;20438;-76
2022/03/30 04:53:31;;;;;;;5.28;3.55;;;11.50;99.90;;;;;;4976161;28;20046;-76
2022/03/30 04:55:56;;;;;;;4.85;1.60;;;11.50;99.90;;;;;;4973017;28;20070;-76
2022/03/30 04:58:22;;;;;;;0.40;0.40;;;11.60;99.90;;;;;;4976298;28;20031;-76
2022/03/30 05:00:48;;;;;;;0.60;0.45;;;11.60;99.90;;;;;;4976192;28;20553;-76
2022/03/30 05:03:14;;;;;;;0.95;0.95;;;11.60;99.90;;;;;;4975150;28;20027;-76
2022/03/30 05:05:40;;;;;;;0.28;0.28;;;11.50;99.90;;;;;;4976002;28;20031;-76
2022/03/30 05:08:06;;;;;;;2.95;1.88;;;11.50;99.90;;;;;;4975812;28;20023;-76
2022/03/30 05:10:32;;;;;;;5.35;2.20;;;11.50;99.90;;;;;;4975873;28;20019;-76
2022/03/30 05:12:59;;;;;;;1.67;1.58;;;11.60;99.90;;;;;;4975925;28;20169;-76
2022/03/30 05:15:28;;;;;;;2.13;1.83;;;11.60;99.90;;;;;;4976107;28;20027;-76
2022/03/30 05:17:54;;;;;;;1.40;1.17;;;11.60;99.90;;;;;;4975375;28;20056;-76
2022/03/30 05:20:20;;;;;;;0.50;0.45;;;11.60;99.90;;;;;;4974963;28;20026;-76
2022/03/30 05:22:46;;;;;;;2.42;1.35;;;11.60;99.90;;;;;;4975881;28;20027;-76
2022/03/30 05:25:12;;;;;;;0.55;0.55;;;11.60;99.90;;;;;;4975810;28;20027;-76
2022/03/30 05:27:39;;;;;;;5.47;2.88;;;11.50;99.90;;;;;;4975451;28;20077;-76
2022/03/30 05:30:06;;;;;;;1.23;0.50;;;11.50;99.90;;;;;;4975885;28;20031;-76
2022/03/30 05:32:32;;;;;;;33.53;1.75;;;11.50;99.90;;;;;;4975457;28;20069;-76
2022/03/30 05:34:58;;;;;;;1.30;0.82;;;11.50;99.90;;;;;;4975448;28;20050;-76
2022/03/30 05:37:24;;;;;;;2.13;1.27;;;11.50;99.90;;;;;;4974380;28;20133;-76
2022/03/30 05:39:50;;;;;;;0.85;0.80;;;11.50;99.90;;;;;;4971455;28;20605;-76
2022/03/30 05:42:16;;;;;;;2.00;1.85;;;11.50;99.90;;;;;;4974719;28;20378;-76
2022/03/30 05:44:42;;;;;;;3.10;2.20;;;11.50;99.90;;;;;;4975220;28;20027;-76
2022/03/30 05:47:09;;;;;;;2.17;1.35;;;11.50;99.90;;;;;;4973268;28;20043;-76
2022/03/30 05:49:36;;;;;;;0.98;0.90;;;11.50;99.90;;;;;;4973956;28;20026;-75
2022/03/30 05:52:04;;;;;;;2.05;0.60;;;11.60;99.90;;;;;;4974980;28;20030;-75
2022/03/30 05:54:30;;;;;;;19.95;2.00;;;11.60;99.90;;;;;;4974487;28;20122;-75
2022/03/30 05:57:01;;;;;;;6.45;2.63;;;11.60;99.90;;;;;;4974409;28;20458;-76
2022/03/30 05:59:32;;;;;;;0.75;0.75;;;11.60;99.90;;;;;;4974756;28;20089;-76
2022/03/30 06:01:59;;;;;;;0.82;0.55;;;11.60;99.90;;;;;;4974949;28;20045;-75
2022/03/30 06:04:25;;;;;;;1.75;1.65;;;11.50;99.90;;;;;;4972657;28;20031;-75
2022/03/30 06:06:51;;;;;;;4.47;3.33;;;11.60;99.90;;;;;;4974589;28;20435;-75
2022/03/30 06:09:18;;;;;;;15.63;3.45;;;11.50;99.90;;;;;;4972740;28;20507;-75
2022/03/30 06:11:44;;;;;;;2.30;1.67;;;11.50;99.90;;;;;;4969752;28;20414;-75
2022/03/30 06:14:10;;;;;;;3.25;1.70;;;11.50;99.90;;;;;;4972559;28;20037;-75
2022/03/30 06:16:37;;;;;;;19.63;3.65;;;11.50;99.90;;;;;;4972788;28;20414;-75
2022/03/30 06:19:03;;;;;;;0.95;0.95;;;11.60;99.90;;;;;;4972424;28;20027;-75
2022/03/30 06:21:30;;;;;;;23.75;3.60;;;11.50;99.90;;;;;;4973433;28;20031;-75
2022/03/30 06:23:56;;;;;;;9.18;5.57;;;11.50;99.90;;;;;;4973494;28;20037;-75
2022/03/30 06:26:22;;;;;;;1.23;0.68;;;11.50;99.90;;;;;;4972321;28;20031;-75
2022/03/30 06:28:49;;;;;;;0.63;0.63;;;11.50;99.90;;;;;;4972039;28;20043;-75
2022/03/30 06:31:18;;;;;;;3.92;1.60;;;11.50;99.90;;;;;;4973843;28;20410;-75
2022/03/30 06:33:45;;;;;;;1.05;1.05;;;11.40;99.90;;;;;;4968457;28;20035;-75
2022/03/30 06:36:11;;;;;;;23.02;3.25;;;11.50;99.90;;;;;;4972061;28;20023;-75
2022/03/30 06:38:37;;;;;;;2.10;0.80;;;11.50;99.90;;;;;;4972677;28;20046;-75
2022/03/30 06:41:04;;;;;;;4.45;1.13;;;11.50;99.90;;;;;;4969390;28;20034;-75
2022/03/30 06:43:29;;;;;;;0.90;0.73;;;11.50;99.90;;;;;;4971851;28;20026;-75
2022/03/30 06:45:55;;;;;;;0.47;0.47;;;11.50;99.90;;;;;;4972322;28;20035;-75
2022/03/30 06:48:21;;;;;;;4.53;1.63;;;11.50;99.90;;;;;;4969245;28;20034;-76
2022/03/30 06:50:47;;;;;;;1.60;1.45;;;11.50;99.90;;;;;;4970922;28;20050;-75
2022/03/30 06:53:13;;;;;;;3.05;2.75;;;11.50;99.90;;;;;;4962359;28;20098;-75
2022/03/30 06:55:38;;;;;;;1.40;1.40;;;11.60;99.90;;;;;;4971454;28;20043;-75
2022/03/30 06:58:05;;;;;;;13.85;0.95;;;11.60;99.90;;;;;;4972650;28;20031;-75
2022/03/30 07:00:31;;;;;;;11.25;4.43;;;11.60;99.90;;;;;;4972426;28;20370;-75
2022/03/30 07:02:57;;;;;;;3.80;2.55;;;11.60;99.90;;;;;;4972379;28;20034;-75
2022/03/30 07:05:22;;;;;;;1.23;1.23;;;11.70;99.90;;;;;;4971677;28;20118;-75
2022/03/30 07:10:33;;;;;;;1.40;1.35;;;11.70;99.90;;;;;;4965672;28;20045;-75
2022/03/30 07:13:03;;;;;;;1.65;1.13;;;11.60;99.90;;;;;;4976945;28;20035;-75
2022/03/30 07:15:32;;;;;;;7.13;1.83;;;11.70;99.90;;;;;;4968413;28;20125;-75
2022/03/30 07:17:59;;;;;;;7.05;2.83;;;11.70;99.90;;;;;;4964789;28;20038;-75
2022/03/30 07:20:26;;;;;;;6.70;1.67;;;11.60;99.90;;;;;;4960282;28;20451;-76
2022/03/30 07:22:52;;;;;;;3.80;1.95;;;11.70;99.90;;;;;;4969476;28;20397;-76
2022/03/30 07:25:20;;;;;;;0.93;0.77;;;11.60;99.90;;;;;;4970527;28;20035;-75
2022/03/30 07:27:51;;;;;;;12.57;3.58;;;11.70;99.90;;;;;;4968949;28;20565;-75
2022/03/30 07:30:19;;;;;;;2.97;1.52;;;11.70;99.90;;;;;;4971061;28;20063;-74
2022/03/30 07:32:46;;;;;;;2.42;1.17;;;11.60;99.90;;;;;;4950833;29;20569;-75
2022/03/30 07:35:15;;;;;;;0.50;0.50;;;11.60;99.90;;;;;;4957804;28;20035;-75
2022/03/30 07:37:42;;;;;;;2.95;2.13;;;11.60;99.90;;;;;;4961454;28;20023;-75
2022/03/30 07:40:09;;;;;;;2.08;1.98;;;11.70;99.90;;;;;;4968555;28;20035;-75
2022/03/30 07:42:35;;;;;;;5.35;2.05;;;11.70;99.90;;;;;;4967447;28;20022;-75
2022/03/30 07:45:03;;;;;;;4.82;2.58;;;11.80;99.90;;;;;;4973631;28;20482;-75
2022/03/30 07:47:29;;;;;;;6.45;2.38;;;11.80;99.90;;;;;;4973032;28;20073;-75
2022/03/30 07:49:55;;;;;;;4.95;2.03;;;12.00;99.90;;;;;;4973616;28;20552;-76
2022/03/30 07:52:22;;;;;;;7.10;2.60;;;12.10;99.90;;;;;;4973264;28;20027;-76
2022/03/30 07:54:48;;;;;;;12.65;1.67;;;12.10;99.90;;;;;;4974692;28;20055;-73
2022/03/30 07:57:15;;;;;;;0.90;0.90;;;12.20;99.90;;;;;;4971346;28;20031;-75
2022/03/30 07:59:41;;;;;;;8.15;1.67;;;12.10;99.90;;;;;;4974421;28;20035;-76
2022/03/30 08:02:08;;;;;;;12.70;1.27;;;12.20;99.90;;;;;;4973449;28;20478;-75
2022/03/30 08:04:33;;;;;;;7.90;3.08;;;12.30;99.90;;;;;;4974227;28;20023;-77
2022/03/30 08:06:59;;;;;;;4.07;1.70;;;12.40;99.90;;;;;;4973875;28;20037;-74
2022/03/30 08:09:25;;;;;;;11.60;3.15;;;12.50;99.90;;;;;;4980235;28;20057;-76
2022/03/30 08:11:52;;;;;;;1.48;1.38;;;12.40;99.90;;;;;;4981640;28;20037;-76
2022/03/30 08:14:18;;;;;;;6.60;4.03;;;12.40;99.90;;;;;;4972694;28;20039;-76
2022/03/30 08:16:44;;;;;;;7.25;2.55;;;12.40;99.90;;;;;;4974957;28;20160;-76
2022/03/30 08:19:10;;;;;;;16.80;2.53;;;12.60;99.90;;;;;;4972791;28;20031;-74
2022/03/30 08:24:21;;;;;;;2.08;1.20;;;12.80;99.90;;;;;;4978733;28;20065;-74
2022/03/30 08:26:47;;;;;;;8.77;3.95;;;12.80;99.90;;;;;;4974963;28;20426;-76
2022/03/30 08:29:12;;;;;;;4.45;2.92;;;12.80;99.90;;;;;;4973551;28;20042;-76
2022/03/30 08:31:38;;;;;;;4.30;1.15;;;12.70;99.90;;;;;;4962346;28;20133;-76
2022/03/30 08:34:04;;;;;;;3.10;2.30;;;12.80;99.90;;;;;;4968209;28;20046;-75
2022/03/30 08:36:31;;;;;;;7.20;2.03;;;13.00;99.90;;;;;;4972086;28;20141;-76
2022/03/30 08:38:58;;;;;;;3.78;3.10;;;13.20;99.90;;;;;;4979401;28;20549;-76
2022/03/30 08:41:24;;;;;;;6.65;3.03;;;13.30;99.90;;;;;;4974116;28;20026;-76
2022/03/30 08:43:49;;;;;;;29.88;3.22;;;13.40;99.90;;;;;;4972067;28;20049;-75
2022/03/30 08:46:15;;;;;;;4.00;2.42;;;13.70;99.90;;;;;;4974429;28;20398;-75
2022/03/30 08:48:42;;;;;;;16.63;2.38;;;13.80;99.90;;;;;;4977081;28;20427;-76
2022/03/30 08:51:08;;;;;;;3.35;2.40;;;13.40;99.90;;;;;;4976135;28;20030;-75
2022/03/30 08:53:34;;;;;;;2.00;1.48;;;13.20;99.90;;;;;;4971403;28;20037;-75
2022/03/30 08:56:00;;;;;;;2.08;1.98;;;13.20;99.90;;;;;;4986961;28;20509;-74
2022/03/30 08:58:26;;;;;;;3.65;2.65;;;13.20;99.90;;;;;;4977255;28;20039;-74
2022/03/30 09:00:52;;;;;;;3.72;2.67;;;13.30;99.90;;;;;;4983111;28;20114;-74
2022/03/30 09:03:19;;;;;;;1.40;1.30;;;13.80;99.90;;;;;;4973602;28;20048;-75
2022/03/30 09:05:45;;;;;;;3.92;2.08;;;14.50;99.90;;;;;;4973275;28;20094;-77
2022/03/30 09:08:24;;;;;;;63.17;5.80;;;16.30;99.90;;;;;;4965758;28;20513;-76
2022/03/30 09:10:52;;;;;;;8.65;2.88;;;16.90;99.90;;;;;;4971869;28;20093;-76
2022/03/30 09:13:18;;;;;;;6.05;2.20;;;16.20;99.90;;;;;;4970006;28;20462;-77
2022/03/30 09:15:45;;;;;;;6.80;2.85;;;16.60;99.90;;;;;;4973098;28;20015;-75
2022/03/30 09:18:14;;;;;;;5.43;2.33;;;18.00;99.90;;;;;;4972784;28;20033;-79
2022/03/30 09:20:42;;;;;;;5.50;2.08;;;19.70;99.90;;;;;;4972020;28;20085;-76
2022/03/30 09:23:10;;;;;;;4.80;1.83;;;19.30;99.90;;;;;;4970527;28;20050;-76
2022/03/30 09:25:37;;;;;;;6.22;3.92;;;18.20;99.90;;;;;;4974328;28;20066;-74
2022/03/30 09:28:03;;;;;;;2.63;2.20;;;17.20;99.90;;;;;;4971768;28;20035;-75
2022/03/30 09:30:30;;;;;;;1.15;1.05;;;16.20;99.90;;;;;;4971184;28;20474;-75
2022/03/30 09:32:58;;;;;;;4.03;1.77;;;15.40;99.90;;;;;;4970687;28;20039;-77
2022/03/30 09:35:32;;;;;;;3.30;1.42;;;14.90;99.90;;;;;;4971404;28;20034;-75
2022/03/30 09:38:22;;;;;;;2.20;1.67;;;14.50;99.90;;;;;;4965758;28;20058;-74
2022/03/30 09:40:54;;;;;;;2.85;2.03;;;14.40;99.90;;;;;;4962864;28;20410;-75
2022/03/30 09:43:22;;;;;;;7.60;1.98;;;14.80;99.90;;;;;;4969202;28;20760;-76
2022/03/30 09:45:51;;;;;;;2.22;1.50;;;15.80;99.90;;;;;;4971541;28;20034;-79
2022/03/30 09:48:26;;;;;;;9.27;2.45;;;17.90;99.90;;;;;;4971605;28;20030;-76
2022/03/30 09:50:54;;;;;;;1.67;1.27;;;17.00;99.90;;;;;;4971269;28;20507;-75
2022/03/30 09:53:22;;;;;;;4.93;1.27;;;16.00;99.90;;;;;;4971658;28;20031;-75
2022/03/30 09:56:05;;;;;;;2.97;2.10;;;15.20;99.90;;;;;;4972395;28;20081;-75
2022/03/30 09:58:34;;;;;;;1.25;0.73;;;14.90;99.90;;;;;;4952834;28;20027;-75
2022/03/30 10:01:08;;;;;;;14.57;3.05;;;15.20;99.90;;;;;;4963930;28;20078;-76
2022/03/30 10:03:37;;;;;;;15.95;1.65;;;16.50;99.90;;;;;;4983484;28;20026;-75
2022/03/30 10:06:04;;;;;;;4.88;1.48;;;17.50;99.90;;;;;;4970760;28;20038;-76
2022/03/30 10:08:31;;;;;;;3.60;1.90;;;18.00;99.90;;;;;;4971506;28;20281;-76
2022/03/30 10:10:58;;;;;;;2.72;1.17;;;18.10;99.90;;;;;;4971018;28;20049;-76
2022/03/30 10:13:24;;;;;;;6.25;2.03;;;17.30;99.90;;;;;;4970735;28;20548;-76
2022/03/30 10:15:52;;;;;;;3.30;1.13;;;17.00;99.90;;;;;;4972527;28;20066;-76
2022/03/30 10:18:19;;;;;;;3.47;1.70;;;17.50;99.90;;;;;;4970789;28;20121;-76
2022/03/30 10:20:50;;;;;;;5.25;1.88;;;18.60;99.90;;;;;;4971765;28;20162;-76
2022/03/30 10:23:34;;;;;;;4.95;2.28;;;18.80;99.90;;;;;;4971277;28;20038;-76
2022/03/30 10:26:15;;;;;;;2.00;1.85;;;18.70;99.90;;;;;;4971066;28;20143;-77
2022/03/30 10:28:43;;;;;;;10.40;3.35;;;18.80;99.90;;;;;;4971413;28;20035;-76
2022/03/30 10:31:09;;;;;;;1.15;1.05;;;18.70;99.90;;;;;;4971644;28;20080;-77
2022/03/30 10:33:40;;;;;;;3.90;1.50;;;18.80;99.90;;;;;;4970975;28;20029;-76
2022/03/30 10:36:27;;;;;;;1.13;1.02;;;18.20;99.90;;;;;;4969822;28;20173;-77
2022/03/30 10:39:14;;;;;;;5.28;1.00;;;18.30;99.90;;;;;;4958151;28;20038;-76
2022/03/30 10:42:03;;;;;;;5.10;2.22;;;17.70;99.90;;;;;;4970993;28;20039;-76
2022/03/30 10:44:58;;;;;;;1.35;0.80;;;17.50;99.90;;;;;;4970704;28;20023;-76
2022/03/30 10:47:26;;;;;;;1.50;0.95;;;17.70;99.90;;;;;;4970309;28;20121;-75
2022/03/30 10:49:56;;;;;;;5.15;2.45;;;18.30;99.90;;;;;;4971287;28;20022;-76
2022/03/30 10:52:47;;;;;;;10.52;2.42;;;18.00;99.90;;;;;;4970446;28;20086;-76
2022/03/30 10:55:12;;;;;;;4.22;1.67;;;18.30;99.90;;;;;;4967430;28;20051;-76
2022/03/30 10:58:02;;;;;;;3.50;1.33;;;18.10;99.90;;;;;;4970572;28;20033;-76
2022/03/30 11:00:34;;;;;;;7.90;1.90;;;17.90;99.90;;;;;;4966729;28;20031;-76
2022/03/30 11:03:06;;;;;;;2.55;1.65;;;18.10;99.90;;;;;;4968971;28;20027;-76
2022/03/30 11:05:32;;;;;;;3.65;1.58;;;17.60;99.90;;;;;;4969353;28;20034;-76
2022/03/30 11:07:59;;;;;;;6.93;1.85;;;16.90;99.90;;;;;;4965814;28;20073;-76
2022/03/30 11:10:48;;;;;;;3.70;1.58;;;17.10;99.90;;;;;;4966312;28;20252;-76
2022/03/30 11:13:23;;;;;;;6.18;1.95;;;16.70;99.90;;;;;;4966325;28;20038;-75
2022/03/30 11:16:01;;;;;;;12.60;3.50;;;16.60;99.90;;;;;;4966316;28;20516;-76
2022/03/30 11:18:28;;;;;;;2.03;1.25;;;16.20;99.90;;;;;;4966858;28;20031;-76
2022/03/30 11:21:09;;;;;;;12.95;2.78;;;16.50;99.90;;;;;;4967677;28;20041;-75
2022/03/30 11:24:25;;;;;;;3.25;2.00;;;16.40;99.90;;;;;;4967543;28;20409;-76
2022/03/30 11:26:51;;;;;;;2.65;1.55;;;16.90;99.90;;;;;;4955049;28;20383;-77
2022/03/30 11:29:41;;;;;;;7.93;2.83;;;17.40;99.90;;;;;;4969305;28;20101;-76
2022/03/30 11:32:19;;;;;;;4.90;2.47;;;17.40;99.90;;;;;;4968463;28;20030;-76
2022/03/30 11:34:52;;;;;;;7.93;2.58;;;17.60;99.90;;;;;;4971001;28;20410;-76
2022/03/30 11:37:19;;;;;;;5.47;2.80;;;18.10;99.90;;;;;;4969760;28;20105;-75
2022/03/30 11:39:49;;;;;;;3.00;2.05;;;18.40;99.90;;;;;;4970813;28;20041;-75
2022/03/30 11:42:19;;;;;;;5.97;1.83;;;17.50;99.90;;;;;;4968733;28;20049;-75
2022/03/30 11:47:34;;;;;;;6.10;1.83;;;18.20;99.90;;;;;;4963744;28;20502;-75
2022/03/30 11:50:00;;;;;;;4.53;1.75;;;18.10;99.90;;;;;;4969111;28;20046;-75
2022/03/30 11:52:26;;;;;;;5.78;1.95;;;17.70;99.90;;;;;;4970343;28;20022;-74
2022/03/30 11:54:53;;;;;;;1.20;1.00;;;17.50;99.90;;;;;;4969104;28;20047;-75
2022/03/30 11:57:21;;;;;;;3.35;1.65;;;17.60;99.90;;;;;;4970890;28;20026;-74
2022/03/30 12:00:02;;;;;;;1.95;1.45;;;17.00;99.90;;;;;;4968805;28;20479;-75
2022/03/30 12:02:28;;;;;;;1.73;1.60;;;16.40;99.90;;;;;;4968109;28;20169;-76
2022/03/30 12:04:55;;;;;;;3.88;1.55;;;15.90;99.90;;;;;;4970980;28;20030;-73
2022/03/30 12:07:22;;;;;;;2.83;1.33;;;15.90;99.90;;;;;;4970276;28;20569;-74
2022/03/30 12:09:56;;;;;;;10.35;2.17;;;16.10;99.90;;;;;;4969415;28;20023;-74
2022/03/30 12:12:37;;;;;;;11.25;1.95;;;15.70;99.90;;;;;;4969458;28;20027;-74
2022/03/30 12:15:16;;;;;;;4.28;1.80;;;15.30;99.90;;;;;;4969356;28;20031;-74
2022/03/30 12:17:48;;;;;;;1.42;0.80;;;14.90;99.90;;;;;;4968545;28;20030;-74
2022/03/30 12:20:25;;;;;;;2.30;1.08;;;14.80;99.90;;;;;;4970465;28;20035;-75
2022/03/30 12:23:05;;;;;;;1.60;1.50;;;14.40;99.90;;;;;;4968240;28;20490;-75
2022/03/30 12:25:36;;;;;;;0.45;0.45;;;14.10;99.90;;;;;;4969061;28;20387;-75
2022/03/30 12:28:03;;;;;;;11.15;1.83;;;14.00;99.90;;;;;;4970081;28;20029;-75
2022/03/30 12:30:32;;;;;;;5.93;1.17;;;14.00;99.90;;;;;;4971488;28;20113;-75
2022/03/30 12:32:57;;;;;;;3.53;2.60;;;14.00;99.90;;;;;;4970583;28;20078;-75
2022/03/30 12:35:28;;;;;;;1.83;1.73;;;13.90;99.90;;;;;;4973523;28;20027;-75
2022/03/30 12:38:14;;;;;;;1.85;1.23;;;14.00;99.90;;;;;;4972760;28;20027;-75
2022/03/30 12:40:42;;;;;;;3.92;0.70;;;14.10;99.90;;;;;;4970938;28;20031;-75
2022/03/30 12:43:09;;;;;;;7.68;2.30;;;14.20;99.90;;;;;;4973026;28;20031;-75
2022/03/30 12:45:46;;;;;;;1.55;1.27;;;14.40;99.90;;;;;;4972896;28;20474;-75
2022/03/30 12:48:12;;;;;;;7.40;1.10;;;14.60;99.90;;;;;;4972984;28;20382;-75
2022/03/30 12:50:38;;;;;;;2.80;1.20;;;14.60;99.90;;;;;;4973026;28;20027;-74
2022/03/30 12:53:06;;;;;;;3.35;1.75;;;14.50;99.90;;;;;;4972112;28;20559;-75
2022/03/30 12:55:35;;;;;;;9.32;1.23;;;14.40;99.90;;;;;;4971335;28;20145;-75
2022/03/30 12:58:13;;;;;;;0.77;0.77;;;14.40;99.90;;;;;;4973326;28;20118;-75
2022/03/30 13:00:41;;;;;;;2.13;1.90;;;14.40;99.90;;;;;;4972699;28;20548;-77